KHZR

False River Regional Airport

New Roads, Louisiana, USA
METAR KHZR 151335Z AUTO 01007KT 10SM CLR 07/00 A3020 RMK AO2 T00660001
Observed Flight Rules
Dec-15 @ 13:35 UTC (25 minutes ago) Visual Flight Rules
Wind Visibility Clouds
10° at 7 knots 10 miles
  • Clear skies
Temperatures Readings
Current 7°C / 45°F
Dewpoint 0°C / 32°F
Humidity 61%
Altimeter 30.2" Hg
Pressure 1023 hPa
Elevation 12
METAR KHZR 151335Z AUTO 01007KT 10SM CLR 07/00 A3020 RMK AO2 T00660001
Observed Flight Rules
Dec-15 @ 13:35 UTC
(25 minutes ago)
VFR
Wind Visibility
10° at 7 knots 10 miles
Clouds
  • Clear skies
Temperature Dewpoint
7°C / 45°F 0°C / 32°F
Humidity Altimeter Pressure
61% 30.2" Hg 1023 hPa